sensor_id;sensor_type;location;lat;lon;timestamp;P1;durP1;ratioP1;P2;durP2;ratioP2
10469;SDS011;5282;47.052;15.458;2023-05-31T00:00:13;4.50;;;4.30;;
10469;SDS011;5282;47.052;15.458;2023-05-31T00:03:42;3.97;;;3.87;;
10469;SDS011;5282;47.052;15.458;2023-05-31T00:07:09;4.40;;;4.10;;
10469;SDS011;5282;47.052;15.458;2023-05-31T00:10:35;4.00;;;3.70;;
10469;SDS011;5282;47.052;15.458;2023-05-31T00:14:01;4.70;;;4.40;;
10469;SDS011;5282;47.052;15.458;2023-05-31T00:17:37;4.40;;;4.20;;
10469;SDS011;5282;47.052;15.458;2023-05-31T00:21:07;4.10;;;3.80;;
10469;SDS011;5282;47.052;15.458;2023-05-31T00:24:38;3.80;;;3.60;;
10469;SDS011;5282;47.052;15.458;2023-05-31T00:28:05;4.13;;;3.93;;
10469;SDS011;5282;47.052;15.458;2023-05-31T00:31:36;3.67;;;3.47;;
10469;SDS011;5282;47.052;15.458;2023-05-31T00:35:09;4.43;;;4.03;;
10469;SDS011;5282;47.052;15.458;2023-05-31T00:38:37;4.10;;;3.80;;
10469;SDS011;5282;47.052;15.458;2023-05-31T00:42:07;4.20;;;4.00;;
10469;SDS011;5282;47.052;15.458;2023-05-31T00:45:33;4.27;;;4.07;;
10469;SDS011;5282;47.052;15.458;2023-05-31T00:49:03;4.03;;;3.87;;
10469;SDS011;5282;47.052;15.458;2023-05-31T00:52:36;4.40;;;4.00;;
10469;SDS011;5282;47.052;15.458;2023-05-31T00:56:02;4.43;;;4.13;;
10469;SDS011;5282;47.052;15.458;2023-05-31T00:59:28;4.40;;;4.00;;
10469;SDS011;5282;47.052;15.458;2023-05-31T01:02:55;4.47;;;4.17;;
10469;SDS011;5282;47.052;15.458;2023-05-31T01:06:23;4.17;;;3.97;;
10469;SDS011;5282;47.052;15.458;2023-05-31T01:09:52;3.93;;;3.70;;
10469;SDS011;5282;47.052;15.458;2023-05-31T01:13:20;4.20;;;3.90;;
10469;SDS011;5282;47.052;15.458;2023-05-31T01:16:54;3.90;;;3.70;;
10469;SDS011;5282;47.052;15.458;2023-05-31T01:20:34;3.90;;;3.60;;
10469;SDS011;5282;47.052;15.458;2023-05-31T01:24:15;4.40;;;4.13;;
10469;SDS011;5282;47.052;15.458;2023-05-31T01:27:54;3.87;;;3.67;;
10469;SDS011;5282;47.052;15.458;2023-05-31T01:31:23;3.83;;;3.63;;
10469;SDS011;5282;47.052;15.458;2023-05-31T01:34:50;3.83;;;3.60;;
10469;SDS011;5282;47.052;15.458;2023-05-31T01:38:15;3.80;;;3.60;;
10469;SDS011;5282;47.052;15.458;2023-05-31T01:41:42;3.50;;;3.30;;
10469;SDS011;5282;47.052;15.458;2023-05-31T01:45:10;3.80;;;3.50;;
10469;SDS011;5282;47.052;15.458;2023-05-31T01:48:38;4.33;;;4.13;;
10469;SDS011;5282;47.052;15.458;2023-05-31T01:52:12;3.53;;;3.33;;
10469;SDS011;5282;47.052;15.458;2023-05-31T01:55:39;3.70;;;3.50;;
10469;SDS011;5282;47.052;15.458;2023-05-31T01:59:06;4.00;;;3.73;;
10469;SDS011;5282;47.052;15.458;2023-05-31T02:02:38;4.20;;;3.80;;
10469;SDS011;5282;47.052;15.458;2023-05-31T02:06:05;3.60;;;3.40;;
10469;SDS011;5282;47.052;15.458;2023-05-31T02:09:31;3.57;;;3.43;;
10469;SDS011;5282;47.052;15.458;2023-05-31T02:12:56;3.43;;;3.30;;
10469;SDS011;5282;47.052;15.458;2023-05-31T02:16:22;3.80;;;3.50;;
10469;SDS011;5282;47.052;15.458;2023-05-31T02:19:50;4.00;;;3.80;;
10469;SDS011;5282;47.052;15.458;2023-05-31T02:23:16;3.90;;;3.70;;
10469;SDS011;5282;47.052;15.458;2023-05-31T02:26:42;3.80;;;3.50;;
10469;SDS011;5282;47.052;15.458;2023-05-31T02:30:08;3.77;;;3.50;;
10469;SDS011;5282;47.052;15.458;2023-05-31T02:33:37;3.30;;;3.10;;
10469;SDS011;5282;47.052;15.458;2023-05-31T02:37:04;3.20;;;3.10;;
10469;SDS011;5282;47.052;15.458;2023-05-31T02:40:29;3.43;;;3.27;;
10469;SDS011;5282;47.052;15.458;2023-05-31T02:43:54;3.37;;;3.17;;
10469;SDS011;5282;47.052;15.458;2023-05-31T02:47:20;3.63;;;3.53;;
10469;SDS011;5282;47.052;15.458;2023-05-31T02:50:45;3.50;;;3.30;;
10469;SDS011;5282;47.052;15.458;2023-05-31T02:54:14;3.57;;;3.37;;
10469;SDS011;5282;47.052;15.458;2023-05-31T02:57:40;3.60;;;3.40;;
10469;SDS011;5282;47.052;15.458;2023-05-31T03:01:06;4.10;;;3.70;;
10469;SDS011;5282;47.052;15.458;2023-05-31T03:04:33;4.17;;;3.80;;
10469;SDS011;5282;47.052;15.458;2023-05-31T03:07:59;4.00;;;3.80;;
10469;SDS011;5282;47.052;15.458;2023-05-31T03:11:27;3.73;;;3.33;;
10469;SDS011;5282;47.052;15.458;2023-05-31T03:14:52;3.63;;;3.33;;
10469;SDS011;5282;47.052;15.458;2023-05-31T03:18:18;3.73;;;3.53;;
10469;SDS011;5282;47.052;15.458;2023-05-31T03:21:43;3.60;;;3.50;;
10469;SDS011;5282;47.052;15.458;2023-05-31T03:25:08;4.07;;;3.87;;
10469;SDS011;5282;47.052;15.458;2023-05-31T03:28:35;3.93;;;3.63;;
10469;SDS011;5282;47.052;15.458;2023-05-31T03:32:03;3.67;;;3.30;;
10469;SDS011;5282;47.052;15.458;2023-05-31T03:35:28;3.60;;;3.40;;
10469;SDS011;5282;47.052;15.458;2023-05-31T03:38:54;3.40;;;3.10;;
10469;SDS011;5282;47.052;15.458;2023-05-31T03:42:20;3.67;;;3.37;;
10469;SDS011;5282;47.052;15.458;2023-05-31T03:45:46;3.63;;;3.33;;
10469;SDS011;5282;47.052;15.458;2023-05-31T03:49:12;3.37;;;3.07;;
10469;SDS011;5282;47.052;15.458;2023-05-31T03:52:38;3.23;;;3.00;;
10469;SDS011;5282;47.052;15.458;2023-05-31T03:56:03;3.70;;;3.50;;
10469;SDS011;5282;47.052;15.458;2023-05-31T03:59:29;3.70;;;3.30;;
10469;SDS011;5282;47.052;15.458;2023-05-31T04:02:56;3.10;;;3.00;;
10469;SDS011;5282;47.052;15.458;2023-05-31T04:06:21;3.47;;;3.27;;
10469;SDS011;5282;47.052;15.458;2023-05-31T04:09:46;3.70;;;3.40;;
10469;SDS011;5282;47.052;15.458;2023-05-31T04:13:12;3.33;;;3.10;;
10469;SDS011;5282;47.052;15.458;2023-05-31T16:56:43;5.63;;;5.20;;
10469;SDS011;5282;47.052;15.458;2023-05-31T16:59:10;5.03;;;4.70;;
10469;SDS011;5282;47.052;15.458;2023-05-31T17:01:37;4.87;;;4.57;;
10469;SDS011;5282;47.052;15.458;2023-05-31T17:04:04;5.07;;;4.57;;
10469;SDS011;5282;47.052;15.458;2023-05-31T17:06:32;4.87;;;4.67;;
10469;SDS011;5282;47.052;15.458;2023-05-31T17:08:59;5.50;;;5.10;;
10469;SDS011;5282;47.052;15.458;2023-05-31T17:11:26;4.87;;;4.67;;
10469;SDS011;5282;47.052;15.458;2023-05-31T17:13:54;5.23;;;4.87;;
10469;SDS011;5282;47.052;15.458;2023-05-31T17:16:21;5.07;;;4.73;;
10469;SDS011;5282;47.052;15.458;2023-05-31T17:18:49;5.43;;;5.03;;
10469;SDS011;5282;47.052;15.458;2023-05-31T17:21:17;5.67;;;5.17;;
10469;SDS011;5282;47.052;15.458;2023-05-31T17:23:43;5.40;;;4.90;;
10469;SDS011;5282;47.052;15.458;2023-05-31T17:26:10;5.07;;;4.73;;
10469;SDS011;5282;47.052;15.458;2023-05-31T17:28:37;4.70;;;4.50;;
10469;SDS011;5282;47.052;15.458;2023-05-31T17:31:08;5.03;;;4.73;;
10469;SDS011;5282;47.052;15.458;2023-05-31T17:33:35;4.93;;;4.63;;
10469;SDS011;5282;47.052;15.458;2023-05-31T17:36:02;5.47;;;5.07;;
10469;SDS011;5282;47.052;15.458;2023-05-31T17:38:29;4.73;;;4.33;;
10469;SDS011;5282;47.052;15.458;2023-05-31T17:40:56;4.73;;;4.53;;
10469;SDS011;5282;47.052;15.458;2023-05-31T17:43:23;5.10;;;4.90;;
10469;SDS011;5282;47.052;15.458;2023-05-31T17:45:49;5.50;;;5.27;;
10469;SDS011;5282;47.052;15.458;2023-05-31T17:48:20;5.60;;;5.30;;
10469;SDS011;5282;47.052;15.458;2023-05-31T17:50:49;5.30;;;4.97;;
10469;SDS011;5282;47.052;15.458;2023-05-31T17:53:16;5.33;;;5.03;;
10469;SDS011;5282;47.052;15.458;2023-05-31T17:55:43;5.53;;;4.97;;
10469;SDS011;5282;47.052;15.458;2023-05-31T17:58:10;5.43;;;5.10;;
10469;SDS011;5282;47.052;15.458;2023-05-31T18:00:38;5.27;;;4.97;;
10469;SDS011;5282;47.052;15.458;2023-05-31T18:03:05;5.37;;;5.03;;
10469;SDS011;5282;47.052;15.458;2023-05-31T18:05:34;5.83;;;5.43;;
10469;SDS011;5282;47.052;15.458;2023-05-31T18:08:00;5.23;;;4.93;;
10469;SDS011;5282;47.052;15.458;2023-05-31T18:10:27;5.73;;;5.40;;
10469;SDS011;5282;47.052;15.458;2023-05-31T18:12:54;5.67;;;5.27;;
10469;SDS011;5282;47.052;15.458;2023-05-31T18:15:21;5.63;;;5.30;;
10469;SDS011;5282;47.052;15.458;2023-05-31T18:17:47;5.70;;;5.40;;
10469;SDS011;5282;47.052;15.458;2023-05-31T18:20:14;5.10;;;4.87;;
10469;SDS011;5282;47.052;15.458;2023-05-31T18:22:44;6.07;;;5.67;;
10469;SDS011;5282;47.052;15.458;2023-05-31T18:25:11;6.20;;;5.87;;
10469;SDS011;5282;47.052;15.458;2023-05-31T18:27:38;5.07;;;4.87;;
10469;SDS011;5282;47.052;15.458;2023-05-31T18:30:05;5.80;;;5.40;;
10469;SDS011;5282;47.052;15.458;2023-05-31T18:32:33;5.53;;;5.23;;
10469;SDS011;5282;47.052;15.458;2023-05-31T18:35:00;6.33;;;5.70;;
10469;SDS011;5282;47.052;15.458;2023-05-31T18:37:27;5.93;;;5.53;;
10469;SDS011;5282;47.052;15.458;2023-05-31T18:39:55;6.10;;;5.80;;
10469;SDS011;5282;47.052;15.458;2023-05-31T18:42:22;6.87;;;6.33;;
10469;SDS011;5282;47.052;15.458;2023-05-31T18:44:49;6.70;;;6.23;;
10469;SDS011;5282;47.052;15.458;2023-05-31T18:47:17;6.73;;;6.33;;
10469;SDS011;5282;47.052;15.458;2023-05-31T18:49:44;6.70;;;6.10;;
10469;SDS011;5282;47.052;15.458;2023-05-31T18:52:11;6.40;;;6.10;;
10469;SDS011;5282;47.052;15.458;2023-05-31T18:54:38;6.27;;;5.90;;
10469;SDS011;5282;47.052;15.458;2023-05-31T18:57:06;7.10;;;6.70;;
10469;SDS011;5282;47.052;15.458;2023-05-31T18:59:33;6.20;;;5.90;;
10469;SDS011;5282;47.052;15.458;2023-05-31T19:02:00;6.50;;;6.20;;
10469;SDS011;5282;47.052;15.458;2023-05-31T19:04:28;5.87;;;5.57;;
10469;SDS011;5282;47.052;15.458;2023-05-31T19:06:56;6.00;;;5.60;;
10469;SDS011;5282;47.052;15.458;2023-05-31T19:09:23;6.10;;;5.70;;
10469;SDS011;5282;47.052;15.458;2023-05-31T19:11:50;6.87;;;6.27;;
10469;SDS011;5282;47.052;15.458;2023-05-31T19:14:21;6.63;;;6.13;;
10469;SDS011;5282;47.052;15.458;2023-05-31T19:16:48;6.57;;;6.27;;
10469;SDS011;5282;47.052;15.458;2023-05-31T19:19:16;6.20;;;5.80;;
10469;SDS011;5282;47.052;15.458;2023-05-31T19:21:43;6.17;;;5.87;;
10469;SDS011;5282;47.052;15.458;2023-05-31T19:24:10;6.13;;;5.53;;
10469;SDS011;5282;47.052;15.458;2023-05-31T19:26:37;6.63;;;6.03;;
10469;SDS011;5282;47.052;15.458;2023-05-31T19:29:04;6.80;;;6.20;;
10469;SDS011;5282;47.052;15.458;2023-05-31T19:31:33;7.20;;;6.70;;
10469;SDS011;5282;47.052;15.458;2023-05-31T19:34:00;7.63;;;7.03;;
10469;SDS011;5282;47.052;15.458;2023-05-31T19:36:28;6.87;;;6.50;;
10469;SDS011;5282;47.052;15.458;2023-05-31T19:38:56;5.87;;;5.57;;
10469;SDS011;5282;47.052;15.458;2023-05-31T19:41:23;6.90;;;6.50;;
10469;SDS011;5282;47.052;15.458;2023-05-31T19:43:51;6.93;;;6.33;;
10469;SDS011;5282;47.052;15.458;2023-05-31T19:46:18;6.23;;;5.93;;
10469;SDS011;5282;47.052;15.458;2023-05-31T19:48:47;6.57;;;6.27;;
10469;SDS011;5282;47.052;15.458;2023-05-31T19:51:14;6.73;;;6.13;;
10469;SDS011;5282;47.052;15.458;2023-05-31T19:53:41;6.30;;;5.90;;
10469;SDS011;5282;47.052;15.458;2023-05-31T19:56:08;6.07;;;5.87;;
10469;SDS011;5282;47.052;15.458;2023-05-31T19:58:35;6.60;;;6.20;;
10469;SDS011;5282;47.052;15.458;2023-05-31T20:01:04;6.40;;;5.97;;
10469;SDS011;5282;47.052;15.458;2023-05-31T20:03:32;5.97;;;5.57;;
10469;SDS011;5282;47.052;15.458;2023-05-31T20:06:00;6.50;;;6.10;;
10469;SDS011;5282;47.052;15.458;2023-05-31T20:08:28;6.07;;;5.70;;
10469;SDS011;5282;47.052;15.458;2023-05-31T20:10:55;6.93;;;6.47;;
10469;SDS011;5282;47.052;15.458;2023-05-31T20:13:23;7.20;;;6.80;;
10469;SDS011;5282;47.052;15.458;2023-05-31T20:15:50;7.07;;;6.67;;
10469;SDS011;5282;47.052;15.458;2023-05-31T20:18:17;7.13;;;6.73;;
10469;SDS011;5282;47.052;15.458;2023-05-31T20:20:46;7.20;;;6.70;;
10469;SDS011;5282;47.052;15.458;2023-05-31T20:23:14;7.10;;;6.53;;
10469;SDS011;5282;47.052;15.458;2023-05-31T20:25:41;6.40;;;6.00;;
10469;SDS011;5282;47.052;15.458;2023-05-31T20:28:08;8.07;;;7.37;;
10469;SDS011;5282;47.052;15.458;2023-05-31T20:30:35;6.60;;;6.23;;
10469;SDS011;5282;47.052;15.458;2023-05-31T20:33:02;7.20;;;6.60;;
10469;SDS011;5282;47.052;15.458;2023-05-31T20:35:29;7.03;;;6.60;;
10469;SDS011;5282;47.052;15.458;2023-05-31T20:37:56;6.63;;;6.10;;
10469;SDS011;5282;47.052;15.458;2023-05-31T20:40:24;7.90;;;6.93;;
10469;SDS011;5282;47.052;15.458;2023-05-31T20:42:51;7.03;;;6.50;;
10469;SDS011;5282;47.052;15.458;2023-05-31T20:45:19;7.10;;;6.43;;
10469;SDS011;5282;47.052;15.458;2023-05-31T20:47:46;6.17;;;5.87;;
10469;SDS011;5282;47.052;15.458;2023-05-31T20:50:13;6.97;;;6.57;;
10469;SDS011;5282;47.052;15.458;2023-05-31T20:52:42;7.47;;;6.20;;
10469;SDS011;5282;47.052;15.458;2023-05-31T20:55:09;6.30;;;5.90;;
10469;SDS011;5282;47.052;15.458;2023-05-31T20:57:37;6.93;;;6.33;;
10469;SDS011;5282;47.052;15.458;2023-05-31T21:00:05;6.50;;;6.20;;
10469;SDS011;5282;47.052;15.458;2023-05-31T21:02:33;6.50;;;6.17;;
10469;SDS011;5282;47.052;15.458;2023-05-31T21:05:00;6.97;;;6.37;;
10469;SDS011;5282;47.052;15.458;2023-05-31T21:07:29;7.03;;;6.47;;
10469;SDS011;5282;47.052;15.458;2023-05-31T21:09:56;6.23;;;5.93;;
10469;SDS011;5282;47.052;15.458;2023-05-31T21:12:24;6.37;;;6.07;;
10469;SDS011;5282;47.052;15.458;2023-05-31T21:14:52;6.07;;;5.60;;
10469;SDS011;5282;47.052;15.458;2023-05-31T21:17:21;6.37;;;5.87;;
10469;SDS011;5282;47.052;15.458;2023-05-31T21:19:50;6.37;;;5.97;;
10469;SDS011;5282;47.052;15.458;2023-05-31T21:22:16;5.97;;;5.67;;
10469;SDS011;5282;47.052;15.458;2023-05-31T21:24:44;6.63;;;6.27;;
10469;SDS011;5282;47.052;15.458;2023-05-31T21:27:11;6.37;;;6.07;;
10469;SDS011;5282;47.052;15.458;2023-05-31T21:29:38;6.70;;;6.30;;
10469;SDS011;5282;47.052;15.458;2023-05-31T21:32:07;6.97;;;6.57;;
10469;SDS011;5282;47.052;15.458;2023-05-31T21:34:34;7.27;;;6.77;;
10469;SDS011;5282;47.052;15.458;2023-05-31T21:37:01;6.23;;;5.93;;
10469;SDS011;5282;47.052;15.458;2023-05-31T21:39:29;7.43;;;6.97;;
10469;SDS011;5282;47.052;15.458;2023-05-31T21:41:56;6.60;;;6.20;;
10469;SDS011;5282;47.052;15.458;2023-05-31T21:44:23;6.80;;;6.40;;
10469;SDS011;5282;47.052;15.458;2023-05-31T21:46:49;6.70;;;6.30;;
10469;SDS011;5282;47.052;15.458;2023-05-31T21:49:20;6.23;;;5.90;;
10469;SDS011;5282;47.052;15.458;2023-05-31T21:51:46;6.00;;;5.80;;
10469;SDS011;5282;47.052;15.458;2023-05-31T21:54:13;6.70;;;6.23;;
10469;SDS011;5282;47.052;15.458;2023-05-31T21:56:40;5.87;;;5.47;;
10469;SDS011;5282;47.052;15.458;2023-05-31T21:59:07;6.53;;;6.13;;
10469;SDS011;5282;47.052;15.458;2023-05-31T22:01:34;6.97;;;6.40;;
10469;SDS011;5282;47.052;15.458;2023-05-31T22:04:01;7.30;;;6.73;;
10469;SDS011;5282;47.052;15.458;2023-05-31T22:06:29;6.57;;;6.10;;
10469;SDS011;5282;47.052;15.458;2023-05-31T22:08:56;6.77;;;6.27;;
10469;SDS011;5282;47.052;15.458;2023-05-31T22:11:23;6.93;;;6.43;;
10469;SDS011;5282;47.052;15.458;2023-05-31T22:13:51;6.53;;;5.90;;
10469;SDS011;5282;47.052;15.458;2023-05-31T22:16:18;7.07;;;6.57;;
10469;SDS011;5282;47.052;15.458;2023-05-31T22:18:46;6.67;;;6.37;;
10469;SDS011;5282;47.052;15.458;2023-05-31T22:21:20;6.90;;;6.50;;
10469;SDS011;5282;47.052;15.458;2023-05-31T22:23:52;5.87;;;5.57;;
10469;SDS011;5282;47.052;15.458;2023-05-31T22:26:19;6.83;;;6.43;;
10469;SDS011;5282;47.052;15.458;2023-05-31T22:28:47;6.53;;;6.03;;
10469;SDS011;5282;47.052;15.458;2023-05-31T22:31:14;6.40;;;6.00;;
10469;SDS011;5282;47.052;15.458;2023-05-31T22:33:42;6.67;;;6.17;;
10469;SDS011;5282;47.052;15.458;2023-05-31T22:36:09;6.90;;;6.30;;
10469;SDS011;5282;47.052;15.458;2023-05-31T22:38:36;7.17;;;6.77;;
10469;SDS011;5282;47.052;15.458;2023-05-31T22:41:05;6.50;;;6.20;;
10469;SDS011;5282;47.052;15.458;2023-05-31T22:43:32;6.37;;;5.97;;
10469;SDS011;5282;47.052;15.458;2023-05-31T22:45:59;6.77;;;6.30;;
10469;SDS011;5282;47.052;15.458;2023-05-31T22:48:26;6.67;;;6.30;;
10469;SDS011;5282;47.052;15.458;2023-05-31T22:50:53;6.67;;;6.37;;
10469;SDS011;5282;47.052;15.458;2023-05-31T22:53:23;6.60;;;6.13;;
10469;SDS011;5282;47.052;15.458;2023-05-31T22:55:50;6.47;;;6.07;;
10469;SDS011;5282;47.052;15.458;2023-05-31T22:58:18;6.17;;;5.90;;
10469;SDS011;5282;47.052;15.458;2023-05-31T23:00:45;6.73;;;6.30;;
10469;SDS011;5282;47.052;15.458;2023-05-31T23:03:13;7.07;;;6.57;;
10469;SDS011;5282;47.052;15.458;2023-05-31T23:05:42;6.80;;;6.27;;
10469;SDS011;5282;47.052;15.458;2023-05-31T23:08:10;7.10;;;6.80;;
10469;SDS011;5282;47.052;15.458;2023-05-31T23:10:37;6.83;;;6.43;;
10469;SDS011;5282;47.052;15.458;2023-05-31T23:13:05;6.80;;;6.33;;
10469;SDS011;5282;47.052;15.458;2023-05-31T23:15:36;6.90;;;6.60;;
10469;SDS011;5282;47.052;15.458;2023-05-31T23:18:03;6.67;;;6.27;;
10469;SDS011;5282;47.052;15.458;2023-05-31T23:20:32;7.17;;;6.67;;
10469;SDS011;5282;47.052;15.458;2023-05-31T23:23:03;6.83;;;6.43;;
10469;SDS011;5282;47.052;15.458;2023-05-31T23:25:30;7.27;;;6.87;;
10469;SDS011;5282;47.052;15.458;2023-05-31T23:27:58;6.80;;;6.40;;
10469;SDS011;5282;47.052;15.458;2023-05-31T23:30:25;6.87;;;6.47;;
10469;SDS011;5282;47.052;15.458;2023-05-31T23:32:54;7.50;;;7.10;;
10469;SDS011;5282;47.052;15.458;2023-05-31T23:35:21;7.70;;;7.17;;
10469;SDS011;5282;47.052;15.458;2023-05-31T23:37:50;7.40;;;7.00;;
10469;SDS011;5282;47.052;15.458;2023-05-31T23:40:17;6.60;;;6.30;;
10469;SDS011;5282;47.052;15.458;2023-05-31T23:42:49;6.63;;;6.27;;
10469;SDS011;5282;47.052;15.458;2023-05-31T23:45:23;7.30;;;6.90;;
10469;SDS011;5282;47.052;15.458;2023-05-31T23:47:54;6.83;;;6.53;;
10469;SDS011;5282;47.052;15.458;2023-05-31T23:50:21;6.17;;;5.77;;
10469;SDS011;5282;47.052;15.458;2023-05-31T23:52:50;6.87;;;6.47;;
10469;SDS011;5282;47.052;15.458;2023-05-31T23:55:17;7.27;;;6.67;;
10469;SDS011;5282;47.052;15.458;2023-05-31T23:57:44;7.17;;;6.70;;
